sensor_id;sensor_type;location;lat;lon;timestamp;P1;durP1;ratioP1;P2;durP2;ratioP2
53519;SDS011;39397;53.204;5.778;2023-05-24T00:00:42;20.38;;;5.65;;
53519;SDS011;39397;53.204;5.778;2023-05-24T00:03:08;25.63;;;4.95;;
53519;SDS011;39397;53.204;5.778;2023-05-24T00:05:34;20.73;;;4.70;;
53519;SDS011;39397;53.204;5.778;2023-05-24T00:08:05;22.13;;;4.68;;
53519;SDS011;39397;53.204;5.778;2023-05-24T00:10:30;29.98;;;5.63;;
53519;SDS011;39397;53.204;5.778;2023-05-24T00:12:56;25.67;;;4.55;;
53519;SDS011;39397;53.204;5.778;2023-05-24T00:15:22;21.90;;;4.70;;
53519;SDS011;39397;53.204;5.778;2023-05-24T00:17:47;19.77;;;4.18;;
53519;SDS011;39397;53.204;5.778;2023-05-24T00:20:13;19.25;;;4.88;;
53519;SDS011;39397;53.204;5.778;2023-05-24T00:22:39;29.45;;;5.40;;
53519;SDS011;39397;53.204;5.778;2023-05-24T00:25:05;23.65;;;4.47;;
53519;SDS011;39397;53.204;5.778;2023-05-24T00:27:32;19.88;;;5.13;;
53519;SDS011;39397;53.204;5.778;2023-05-24T00:29:58;24.52;;;5.15;;
53519;SDS011;39397;53.204;5.778;2023-05-24T00:32:24;31.58;;;6.47;;
53519;SDS011;39397;53.204;5.778;2023-05-24T00:34:49;26.45;;;5.97;;
53519;SDS011;39397;53.204;5.778;2023-05-24T00:37:15;16.95;;;4.03;;
53519;SDS011;39397;53.204;5.778;2023-05-24T00:39:42;26.77;;;5.78;;
53519;SDS011;39397;53.204;5.778;2023-05-24T00:42:07;22.05;;;4.32;;
53519;SDS011;39397;53.204;5.778;2023-05-24T00:44:33;20.08;;;5.32;;
53519;SDS011;39397;53.204;5.778;2023-05-24T00:46:59;21.33;;;4.28;;
53519;SDS011;39397;53.204;5.778;2023-05-24T00:49:25;21.42;;;4.60;;
53519;SDS011;39397;53.204;5.778;2023-05-24T00:51:51;23.67;;;4.60;;
53519;SDS011;39397;53.204;5.778;2023-05-24T00:54:18;30.20;;;5.45;;
53519;SDS011;39397;53.204;5.778;2023-05-24T00:56:44;20.00;;;4.32;;
53519;SDS011;39397;53.204;5.778;2023-05-24T00:59:12;23.92;;;5.18;;
53519;SDS011;39397;53.204;5.778;2023-05-24T01:01:38;23.33;;;4.40;;
53519;SDS011;39397;53.204;5.778;2023-05-24T01:04:05;24.73;;;4.95;;
53519;SDS011;39397;53.204;5.778;2023-05-24T01:06:34;22.05;;;4.63;;
53519;SDS011;39397;53.204;5.778;2023-05-24T01:09:32;21.50;;;5.20;;
53519;SDS011;39397;53.204;5.778;2023-05-24T01:12:10;24.83;;;4.70;;
53519;SDS011;39397;53.204;5.778;2023-05-24T01:20:10;21.35;;;4.50;;
53519;SDS011;39397;53.204;5.778;2023-05-24T01:27:47;23.05;;;4.57;;
53519;SDS011;39397;53.204;5.778;2023-05-24T01:30:14;22.80;;;4.55;;
53519;SDS011;39397;53.204;5.778;2023-05-24T01:32:41;25.48;;;4.72;;
53519;SDS011;39397;53.204;5.778;2023-05-24T01:35:07;25.08;;;4.32;;
53519;SDS011;39397;53.204;5.778;2023-05-24T01:37:33;21.50;;;4.25;;
53519;SDS011;39397;53.204;5.778;2023-05-24T01:39:59;26.65;;;4.57;;
53519;SDS011;39397;53.204;5.778;2023-05-24T01:45:08;19.23;;;4.47;;
53519;SDS011;39397;53.204;5.778;2023-05-24T01:50:57;22.13;;;4.25;;
53519;SDS011;39397;53.204;5.778;2023-05-24T01:53:25;19.33;;;4.18;;
53519;SDS011;39397;53.204;5.778;2023-05-24T01:55:56;20.40;;;4.40;;
53519;SDS011;39397;53.204;5.778;2023-05-24T01:58:24;22.83;;;4.88;;
53519;SDS011;39397;53.204;5.778;2023-05-24T02:00:52;18.73;;;4.10;;
53519;SDS011;39397;53.204;5.778;2023-05-24T02:03:18;16.67;;;3.95;;
53519;SDS011;39397;53.204;5.778;2023-05-24T02:05:45;21.63;;;4.55;;
53519;SDS011;39397;53.204;5.778;2023-05-24T02:08:11;22.58;;;4.20;;
53519;SDS011;39397;53.204;5.778;2023-05-24T02:10:38;15.15;;;3.70;;
53519;SDS011;39397;53.204;5.778;2023-05-24T02:13:05;23.85;;;4.93;;
53519;SDS011;39397;53.204;5.778;2023-05-24T02:15:31;18.38;;;4.65;;
53519;SDS011;39397;53.204;5.778;2023-05-24T02:17:57;19.55;;;4.13;;
53519;SDS011;39397;53.204;5.778;2023-05-24T02:20:23;20.98;;;3.95;;
53519;SDS011;39397;53.204;5.778;2023-05-24T02:22:49;21.25;;;3.95;;
53519;SDS011;39397;53.204;5.778;2023-05-24T02:25:14;23.33;;;4.82;;
53519;SDS011;39397;53.204;5.778;2023-05-24T02:27:40;20.27;;;3.85;;
53519;SDS011;39397;53.204;5.778;2023-05-24T02:30:11;18.60;;;4.10;;
53519;SDS011;39397;53.204;5.778;2023-05-24T02:32:37;21.65;;;4.00;;
53519;SDS011;39397;53.204;5.778;2023-05-24T02:35:03;19.00;;;3.70;;
53519;SDS011;39397;53.204;5.778;2023-05-24T02:37:29;18.30;;;4.40;;
53519;SDS011;39397;53.204;5.778;2023-05-24T02:39:55;13.57;;;3.63;;
53519;SDS011;39397;53.204;5.778;2023-05-24T02:42:21;22.13;;;3.90;;
53519;SDS011;39397;53.204;5.778;2023-05-24T02:44:47;20.10;;;4.50;;
53519;SDS011;39397;53.204;5.778;2023-05-24T02:47:16;15.63;;;3.55;;
53519;SDS011;39397;53.204;5.778;2023-05-24T02:49:42;21.13;;;4.70;;
53519;SDS011;39397;53.204;5.778;2023-05-24T02:52:07;17.77;;;3.38;;
53519;SDS011;39397;53.204;5.778;2023-05-24T02:54:33;16.75;;;3.53;;
53519;SDS011;39397;53.204;5.778;2023-05-24T02:57:01;24.20;;;4.20;;
53519;SDS011;39397;53.204;5.778;2023-05-24T02:59:27;17.50;;;3.92;;
53519;SDS011;39397;53.204;5.778;2023-05-24T03:01:52;17.88;;;3.70;;
53519;SDS011;39397;53.204;5.778;2023-05-24T03:04:20;20.27;;;4.07;;
53519;SDS011;39397;53.204;5.778;2023-05-24T03:06:45;20.95;;;3.85;;
53519;SDS011;39397;53.204;5.778;2023-05-24T03:09:11;19.58;;;3.70;;
53519;SDS011;39397;53.204;5.778;2023-05-24T03:11:37;21.60;;;3.92;;
53519;SDS011;39397;53.204;5.778;2023-05-24T03:14:03;20.23;;;4.03;;
53519;SDS011;39397;53.204;5.778;2023-05-24T03:16:30;19.92;;;4.10;;
53519;SDS011;39397;53.204;5.778;2023-05-24T03:18:57;19.70;;;4.20;;
53519;SDS011;39397;53.204;5.778;2023-05-24T03:21:24;14.90;;;4.10;;
53519;SDS011;39397;53.204;5.778;2023-05-24T03:23:49;13.18;;;3.35;;
53519;SDS011;39397;53.204;5.778;2023-05-24T03:26:15;21.38;;;4.13;;
53519;SDS011;39397;53.204;5.778;2023-05-24T03:28:42;20.60;;;3.75;;
53519;SDS011;39397;53.204;5.778;2023-05-24T03:31:09;21.75;;;4.55;;
53519;SDS011;39397;53.204;5.778;2023-05-24T03:33:36;16.17;;;4.63;;
53519;SDS011;39397;53.204;5.778;2023-05-24T03:36:02;16.05;;;3.60;;
53519;SDS011;39397;53.204;5.778;2023-05-24T03:38:29;18.48;;;5.15;;
53519;SDS011;39397;53.204;5.778;2023-05-24T03:40:55;18.73;;;3.88;;
53519;SDS011;39397;53.204;5.778;2023-05-24T03:43:21;21.98;;;4.65;;
53519;SDS011;39397;53.204;5.778;2023-05-24T03:45:47;17.27;;;4.15;;
53519;SDS011;39397;53.204;5.778;2023-05-24T03:48:13;17.00;;;3.72;;
53519;SDS011;39397;53.204;5.778;2023-05-24T03:50:39;22.80;;;3.65;;
53519;SDS011;39397;53.204;5.778;2023-05-24T03:53:05;17.25;;;4.45;;
53519;SDS011;39397;53.204;5.778;2023-05-24T03:55:30;19.33;;;3.78;;
53519;SDS011;39397;53.204;5.778;2023-05-24T03:57:56;17.05;;;3.55;;
53519;SDS011;39397;53.204;5.778;2023-05-24T04:00:22;20.95;;;4.03;;
53519;SDS011;39397;53.204;5.778;2023-05-24T04:02:47;25.52;;;4.25;;
53519;SDS011;39397;53.204;5.778;2023-05-24T04:05:13;18.15;;;4.00;;
53519;SDS011;39397;53.204;5.778;2023-05-24T04:07:39;17.80;;;3.80;;
53519;SDS011;39397;53.204;5.778;2023-05-24T04:10:06;16.20;;;4.07;;
53519;SDS011;39397;53.204;5.778;2023-05-24T04:12:32;22.73;;;4.35;;
53519;SDS011;39397;53.204;5.778;2023-05-24T04:14:58;20.63;;;4.13;;
53519;SDS011;39397;53.204;5.778;2023-05-24T04:17:25;14.05;;;3.50;;
53519;SDS011;39397;53.204;5.778;2023-05-24T04:19:53;21.77;;;4.38;;
53519;SDS011;39397;53.204;5.778;2023-05-24T04:22:19;16.23;;;3.78;;
53519;SDS011;39397;53.204;5.778;2023-05-24T04:24:45;20.88;;;3.83;;
53519;SDS011;39397;53.204;5.778;2023-05-24T04:27:10;17.95;;;3.58;;
53519;SDS011;39397;53.204;5.778;2023-05-24T04:29:38;18.90;;;4.00;;
53519;SDS011;39397;53.204;5.778;2023-05-24T04:32:04;17.17;;;3.92;;
53519;SDS011;39397;53.204;5.778;2023-05-24T04:34:31;16.15;;;3.53;;
53519;SDS011;39397;53.204;5.778;2023-05-24T04:37:01;20.05;;;4.25;;
53519;SDS011;39397;53.204;5.778;2023-05-24T04:39:28;18.55;;;3.83;;
53519;SDS011;39397;53.204;5.778;2023-05-24T04:41:54;21.05;;;5.40;;
53519;SDS011;39397;53.204;5.778;2023-05-24T04:44:22;15.95;;;3.80;;
53519;SDS011;39397;53.204;5.778;2023-05-24T04:46:48;16.77;;;4.75;;
53519;SDS011;39397;53.204;5.778;2023-05-24T04:49:14;22.48;;;4.30;;
53519;SDS011;39397;53.204;5.778;2023-05-24T04:51:41;17.30;;;4.32;;
53519;SDS011;39397;53.204;5.778;2023-05-24T04:54:07;20.60;;;4.30;;
53519;SDS011;39397;53.204;5.778;2023-05-24T04:56:36;20.50;;;4.88;;
53519;SDS011;39397;53.204;5.778;2023-05-24T04:59:06;21.33;;;5.80;;
53519;SDS011;39397;53.204;5.778;2023-05-24T05:01:33;16.75;;;3.60;;
53519;SDS011;39397;53.204;5.778;2023-05-24T05:04:01;18.83;;;4.25;;
53519;SDS011;39397;53.204;5.778;2023-05-24T05:06:30;21.30;;;3.83;;
53519;SDS011;39397;53.204;5.778;2023-05-24T05:08:59;21.13;;;3.70;;
53519;SDS011;39397;53.204;5.778;2023-05-24T05:11:26;19.65;;;4.05;;
53519;SDS011;39397;53.204;5.778;2023-05-24T05:13:52;16.02;;;3.50;;
53519;SDS011;39397;53.204;5.778;2023-05-24T05:16:19;14.88;;;3.85;;
53519;SDS011;39397;53.204;5.778;2023-05-24T05:18:45;18.33;;;4.13;;
53519;SDS011;39397;53.204;5.778;2023-05-24T05:21:10;16.83;;;3.65;;
53519;SDS011;39397;53.204;5.778;2023-05-24T05:23:36;23.15;;;3.95;;
53519;SDS011;39397;53.204;5.778;2023-05-24T05:26:04;16.98;;;3.33;;
53519;SDS011;39397;53.204;5.778;2023-05-24T05:28:31;22.15;;;4.38;;
53519;SDS011;39397;53.204;5.778;2023-05-24T05:30:57;16.58;;;3.17;;
53519;SDS011;39397;53.204;5.778;2023-05-24T05:33:25;17.27;;;4.45;;
53519;SDS011;39397;53.204;5.778;2023-05-24T05:35:51;21.98;;;4.40;;
53519;SDS011;39397;53.204;5.778;2023-05-24T05:38:18;22.00;;;4.15;;
53519;SDS011;39397;53.204;5.778;2023-05-24T05:40:43;21.77;;;4.80;;
53519;SDS011;39397;53.204;5.778;2023-05-24T05:43:09;20.20;;;3.97;;
53519;SDS011;39397;53.204;5.778;2023-05-24T05:45:35;20.90;;;4.18;;
53519;SDS011;39397;53.204;5.778;2023-05-24T05:48:00;15.45;;;4.38;;
53519;SDS011;39397;53.204;5.778;2023-05-24T05:50:26;14.73;;;3.30;;
53519;SDS011;39397;53.204;5.778;2023-05-24T05:52:52;15.07;;;3.80;;
53519;SDS011;39397;53.204;5.778;2023-05-24T05:55:18;13.85;;;2.90;;
53519;SDS011;39397;53.204;5.778;2023-05-24T05:57:43;19.83;;;4.60;;
53519;SDS011;39397;53.204;5.778;2023-05-24T06:00:09;18.17;;;3.45;;
53519;SDS011;39397;53.204;5.778;2023-05-24T06:02:35;15.32;;;3.47;;
53519;SDS011;39397;53.204;5.778;2023-05-24T06:05:01;13.80;;;3.17;;
53519;SDS011;39397;53.204;5.778;2023-05-24T06:07:27;15.73;;;3.58;;
53519;SDS011;39397;53.204;5.778;2023-05-24T06:09:53;18.10;;;3.83;;
53519;SDS011;39397;53.204;5.778;2023-05-24T06:12:18;14.68;;;3.42;;
53519;SDS011;39397;53.204;5.778;2023-05-24T06:14:44;16.02;;;3.25;;
53519;SDS011;39397;53.204;5.778;2023-05-24T06:17:12;12.50;;;3.40;;
53519;SDS011;39397;53.204;5.778;2023-05-24T06:19:38;13.43;;;3.67;;
53519;SDS011;39397;53.204;5.778;2023-05-24T06:22:03;13.30;;;3.63;;
53519;SDS011;39397;53.204;5.778;2023-05-24T06:24:29;14.90;;;3.25;;
53519;SDS011;39397;53.204;5.778;2023-05-24T06:26:55;14.65;;;3.50;;
53519;SDS011;39397;53.204;5.778;2023-05-24T06:29:20;20.05;;;3.70;;
53519;SDS011;39397;53.204;5.778;2023-05-24T06:31:49;19.58;;;3.92;;
53519;SDS011;39397;53.204;5.778;2023-05-24T06:34:15;23.52;;;5.10;;
53519;SDS011;39397;53.204;5.778;2023-05-24T06:36:43;15.15;;;3.30;;
53519;SDS011;39397;53.204;5.778;2023-05-24T06:39:11;18.30;;;3.10;;
53519;SDS011;39397;53.204;5.778;2023-05-24T06:41:37;15.73;;;3.08;;
53519;SDS011;39397;53.204;5.778;2023-05-24T06:44:04;12.93;;;2.97;;
53519;SDS011;39397;53.204;5.778;2023-05-24T06:46:30;15.48;;;3.95;;
53519;SDS011;39397;53.204;5.778;2023-05-24T06:48:55;16.17;;;3.15;;
53519;SDS011;39397;53.204;5.778;2023-05-24T06:51:22;12.73;;;3.25;;
53519;SDS011;39397;53.204;5.778;2023-05-24T06:53:47;16.08;;;3.00;;
53519;SDS011;39397;53.204;5.778;2023-05-24T06:56:13;11.52;;;2.67;;
53519;SDS011;39397;53.204;5.778;2023-05-24T06:58:39;13.35;;;3.33;;
53519;SDS011;39397;53.204;5.778;2023-05-24T07:01:05;11.77;;;3.58;;
53519;SDS011;39397;53.204;5.778;2023-05-24T07:03:32;18.05;;;3.20;;
53519;SDS011;39397;53.204;5.778;2023-05-24T07:05:58;13.43;;;2.78;;
53519;SDS011;39397;53.204;5.778;2023-05-24T07:08:24;17.45;;;3.08;;
53519;SDS011;39397;53.204;5.778;2023-05-24T07:10:50;10.43;;;2.72;;
53519;SDS011;39397;53.204;5.778;2023-05-24T07:13:18;12.35;;;2.80;;
53519;SDS011;39397;53.204;5.778;2023-05-24T07:15:44;17.02;;;3.28;;
53519;SDS011;39397;53.204;5.778;2023-05-24T07:18:10;15.75;;;3.03;;
53519;SDS011;39397;53.204;5.778;2023-05-24T07:20:37;13.45;;;2.95;;
53519;SDS011;39397;53.204;5.778;2023-05-24T07:23:02;10.65;;;2.72;;
53519;SDS011;39397;53.204;5.778;2023-05-24T07:25:29;15.35;;;3.25;;
53519;SDS011;39397;53.204;5.778;2023-05-24T07:27:55;22.15;;;3.63;;
53519;SDS011;39397;53.204;5.778;2023-05-24T07:30:21;9.80;;;2.85;;
53519;SDS011;39397;53.204;5.778;2023-05-24T07:32:46;11.60;;;3.10;;
53519;SDS011;39397;53.204;5.778;2023-05-24T07:35:12;9.15;;;2.38;;
53519;SDS011;39397;53.204;5.778;2023-05-24T07:37:38;10.32;;;2.80;;
53519;SDS011;39397;53.204;5.778;2023-05-24T07:40:05;13.48;;;2.50;;
53519;SDS011;39397;53.204;5.778;2023-05-24T07:42:34;12.07;;;2.78;;
53519;SDS011;39397;53.204;5.778;2023-05-24T07:45:00;11.10;;;3.05;;
53519;SDS011;39397;53.204;5.778;2023-05-24T07:47:26;11.88;;;2.92;;
53519;SDS011;39397;53.204;5.778;2023-05-24T07:49:52;16.45;;;3.15;;
53519;SDS011;39397;53.204;5.778;2023-05-24T07:52:19;11.23;;;2.90;;
53519;SDS011;39397;53.204;5.778;2023-05-24T07:54:47;13.27;;;2.90;;
53519;SDS011;39397;53.204;5.778;2023-05-24T07:57:12;11.10;;;2.75;;
53519;SDS011;39397;53.204;5.778;2023-05-24T07:59:39;9.32;;;2.45;;
53519;SDS011;39397;53.204;5.778;2023-05-24T08:02:05;14.73;;;3.10;;
53519;SDS011;39397;53.204;5.778;2023-05-24T08:04:31;13.85;;;2.97;;
53519;SDS011;39397;53.204;5.778;2023-05-24T08:06:59;10.27;;;2.60;;
53519;SDS011;39397;53.204;5.778;2023-05-24T08:09:29;12.00;;;2.80;;
53519;SDS011;39397;53.204;5.778;2023-05-24T08:12:00;12.18;;;3.13;;
53519;SDS011;39397;53.204;5.778;2023-05-24T08:14:29;14.48;;;3.72;;
53519;SDS011;39397;53.204;5.778;2023-05-24T08:16:55;14.60;;;2.80;;
53519;SDS011;39397;53.204;5.778;2023-05-24T08:19:21;16.35;;;3.20;;
53519;SDS011;39397;53.204;5.778;2023-05-24T08:21:49;15.32;;;3.25;;
53519;SDS011;39397;53.204;5.778;2023-05-24T08:24:15;16.17;;;2.72;;
53519;SDS011;39397;53.204;5.778;2023-05-24T08:26:41;17.00;;;3.90;;
53519;SDS011;39397;53.204;5.778;2023-05-24T08:29:07;13.63;;;3.03;;
53519;SDS011;39397;53.204;5.778;2023-05-24T08:31:33;11.63;;;2.63;;
53519;SDS011;39397;53.204;5.778;2023-05-24T08:33:59;10.75;;;2.60;;
53519;SDS011;39397;53.204;5.778;2023-05-24T08:36:25;11.35;;;3.20;;
53519;SDS011;39397;53.204;5.778;2023-05-24T08:38:51;11.80;;;2.85;;
53519;SDS011;39397;53.204;5.778;2023-05-24T08:41:17;10.80;;;2.70;;
53519;SDS011;39397;53.204;5.778;2023-05-24T08:43:42;11.07;;;2.85;;
53519;SDS011;39397;53.204;5.778;2023-05-24T08:46:11;12.05;;;2.53;;
53519;SDS011;39397;53.204;5.778;2023-05-24T08:48:43;14.85;;;3.67;;
53519;SDS011;39397;53.204;5.778;2023-05-24T08:51:14;9.05;;;2.42;;
53519;SDS011;39397;53.204;5.778;2023-05-24T08:53:40;14.75;;;3.05;;
53519;SDS011;39397;53.204;5.778;2023-05-24T08:56:12;13.95;;;3.03;;
53519;SDS011;39397;53.204;5.778;2023-05-24T08:58:41;12.00;;;3.08;;
53519;SDS011;39397;53.204;5.778;2023-05-24T09:01:07;12.65;;;2.65;;
53519;SDS011;39397;53.204;5.778;2023-05-24T09:03:35;14.82;;;2.78;;
53519;SDS011;39397;53.204;5.778;2023-05-24T09:06:01;12.45;;;3.50;;
53519;SDS011;39397;53.204;5.778;2023-05-24T09:08:28;14.90;;;2.92;;
53519;SDS011;39397;53.204;5.778;2023-05-24T09:10:57;10.85;;;3.05;;
53519;SDS011;39397;53.204;5.778;2023-05-24T09:13:24;14.25;;;2.85;;
53519;SDS011;39397;53.204;5.778;2023-05-24T09:15:51;12.38;;;2.80;;
53519;SDS011;39397;53.204;5.778;2023-05-24T09:18:17;11.55;;;3.08;;
53519;SDS011;39397;53.204;5.778;2023-05-24T09:20:42;10.80;;;3.25;;
53519;SDS011;39397;53.204;5.778;2023-05-24T09:23:08;12.07;;;3.08;;
53519;SDS011;39397;53.204;5.778;2023-05-24T09:25:36;10.23;;;3.08;;
53519;SDS011;39397;53.204;5.778;2023-05-24T09:28:07;9.00;;;2.78;;
53519;SDS011;39397;53.204;5.778;2023-05-24T09:30:34;9.77;;;2.67;;
53519;SDS011;39397;53.204;5.778;2023-05-24T09:33:00;7.88;;;2.17;;
53519;SDS011;39397;53.204;5.778;2023-05-24T09:35:26;9.85;;;3.42;;
53519;SDS011;39397;53.204;5.778;2023-05-24T09:37:52;11.60;;;3.08;;
53519;SDS011;39397;53.204;5.778;2023-05-24T09:40:21;8.85;;;2.33;;
53519;SDS011;39397;53.204;5.778;2023-05-24T09:42:47;12.05;;;2.45;;
53519;SDS011;39397;53.204;5.778;2023-05-24T09:45:16;12.48;;;2.70;;
53519;SDS011;39397;53.204;5.778;2023-05-24T09:47:42;11.13;;;2.65;;
53519;SDS011;39397;53.204;5.778;2023-05-24T09:50:15;8.82;;;2.30;;
53519;SDS011;39397;53.204;5.778;2023-05-24T09:52:42;10.15;;;2.17;;
53519;SDS011;39397;53.204;5.778;2023-05-24T09:57:42;9.82;;;2.60;;
53519;SDS011;39397;53.204;5.778;2023-05-24T10:00:08;8.02;;;2.28;;
53519;SDS011;39397;53.204;5.778;2023-05-24T10:02:42;13.47;;;3.47;;
53519;SDS011;39397;53.204;5.778;2023-05-24T10:05:09;11.15;;;2.28;;
53519;SDS011;39397;53.204;5.778;2023-05-24T10:07:36;9.43;;;2.70;;
53519;SDS011;39397;53.204;5.778;2023-05-24T10:10:03;8.88;;;2.70;;
53519;SDS011;39397;53.204;5.778;2023-05-24T10:12:30;13.70;;;2.97;;
53519;SDS011;39397;53.204;5.778;2023-05-24T10:14:57;10.38;;;2.70;;
53519;SDS011;39397;53.204;5.778;2023-05-24T10:17:24;11.73;;;2.67;;
53519;SDS011;39397;53.204;5.778;2023-05-24T10:19:53;11.27;;;2.60;;
53519;SDS011;39397;53.204;5.778;2023-05-24T10:22:19;10.43;;;2.60;;
53519;SDS011;39397;53.204;5.778;2023-05-24T10:24:55;10.38;;;2.65;;
53519;SDS011;39397;53.204;5.778;2023-05-24T10:27:23;12.88;;;2.95;;
53519;SDS011;39397;53.204;5.778;2023-05-24T10:32:49;10.90;;;2.80;;
53519;SDS011;39397;53.204;5.778;2023-05-24T10:35:16;7.47;;;2.25;;
53519;SDS011;39397;53.204;5.778;2023-05-24T10:37:47;12.35;;;2.72;;
53519;SDS011;39397;53.204;5.778;2023-05-24T10:40:17;10.52;;;2.67;;
53519;SDS011;39397;53.204;5.778;2023-05-24T10:42:46;13.88;;;2.90;;
53519;SDS011;39397;53.204;5.778;2023-05-24T10:47:47;12.25;;;3.00;;
53519;SDS011;39397;53.204;5.778;2023-05-24T10:50:17;11.18;;;3.47;;
53519;SDS011;39397;53.204;5.778;2023-05-24T10:52:43;10.95;;;3.33;;
53519;SDS011;39397;53.204;5.778;2023-05-24T10:55:09;11.27;;;3.00;;
53519;SDS011;39397;53.204;5.778;2023-05-24T10:57:36;15.75;;;4.28;;
53519;SDS011;39397;53.204;5.778;2023-05-24T11:02:49;7.50;;;2.42;;
53519;SDS011;39397;53.204;5.778;2023-05-24T11:05:34;11.45;;;2.92;;
53519;SDS011;39397;53.204;5.778;2023-05-24T11:08:13;12.43;;;3.08;;
53519;SDS011;39397;53.204;5.778;2023-05-24T11:10:45;10.35;;;3.17;;
53519;SDS011;39397;53.204;5.778;2023-05-24T11:13:11;14.65;;;3.05;;
53519;SDS011;39397;53.204;5.778;2023-05-24T11:15:37;12.52;;;3.95;;
53519;SDS011;39397;53.204;5.778;2023-05-24T11:20:33;12.73;;;2.65;;
53519;SDS011;39397;53.204;5.778;2023-05-24T11:23:02;10.60;;;2.60;;
53519;SDS011;39397;53.204;5.778;2023-05-24T11:25:33;10.10;;;2.95;;
53519;SDS011;39397;53.204;5.778;2023-05-24T11:28:05;16.27;;;3.05;;
53519;SDS011;39397;53.204;5.778;2023-05-24T11:30:33;10.90;;;3.15;;
53519;SDS011;39397;53.204;5.778;2023-05-24T11:33:12;10.02;;;2.47;;
53519;SDS011;39397;53.204;5.778;2023-05-24T11:35:43;10.18;;;3.03;;
53519;SDS011;39397;53.204;5.778;2023-05-24T11:38:09;10.88;;;2.72;;
53519;SDS011;39397;53.204;5.778;2023-05-24T11:40:40;9.82;;;2.83;;
53519;SDS011;39397;53.204;5.778;2023-05-24T11:43:18;10.40;;;3.22;;
53519;SDS011;39397;53.204;5.778;2023-05-24T11:45:47;9.55;;;2.60;;
53519;SDS011;39397;53.204;5.778;2023-05-24T11:48:15;13.82;;;2.85;;
53519;SDS011;39397;53.204;5.778;2023-05-24T11:50:43;10.95;;;2.30;;
53519;SDS011;39397;53.204;5.778;2023-05-24T11:53:14;10.18;;;2.30;;
53519;SDS011;39397;53.204;5.778;2023-05-24T11:55:42;8.65;;;1.90;;
53519;SDS011;39397;53.204;5.778;2023-05-24T11:58:31;10.82;;;2.55;;
53519;SDS011;39397;53.204;5.778;2023-05-24T12:01:05;12.00;;;2.80;;
53519;SDS011;39397;53.204;5.778;2023-05-24T12:03:31;10.35;;;2.70;;
53519;SDS011;39397;53.204;5.778;2023-05-24T12:05:57;9.52;;;2.55;;
53519;SDS011;39397;53.204;5.778;2023-05-24T12:08:23;8.90;;;2.58;;
53519;SDS011;39397;53.204;5.778;2023-05-24T12:10:49;13.40;;;2.92;;
53519;SDS011;39397;53.204;5.778;2023-05-24T12:13:19;11.23;;;2.47;;
53519;SDS011;39397;53.204;5.778;2023-05-24T12:15:52;11.63;;;2.60;;
53519;SDS011;39397;53.204;5.778;2023-05-24T12:18:22;9.30;;;2.78;;
53519;SDS011;39397;53.204;5.778;2023-05-24T12:20:50;9.80;;;2.20;;
53519;SDS011;39397;53.204;5.778;2023-05-24T12:23:21;9.27;;;2.30;;
53519;SDS011;39397;53.204;5.778;2023-05-24T12:26:00;11.70;;;2.58;;
53519;SDS011;39397;53.204;5.778;2023-05-24T12:28:33;8.57;;;2.47;;
53519;SDS011;39397;53.204;5.778;2023-05-24T12:31:01;11.77;;;2.83;;
53519;SDS011;39397;53.204;5.778;2023-05-24T12:33:28;10.68;;;2.30;;
53519;SDS011;39397;53.204;5.778;2023-05-24T12:35:54;8.77;;;2.35;;
53519;SDS011;39397;53.204;5.778;2023-05-24T12:38:22;5.63;;;2.05;;
53519;SDS011;39397;53.204;5.778;2023-05-24T12:40:51;10.15;;;2.83;;
53519;SDS011;39397;53.204;5.778;2023-05-24T12:43:18;10.45;;;2.38;;
53519;SDS011;39397;53.204;5.778;2023-05-24T12:45:45;11.55;;;2.53;;
53519;SDS011;39397;53.204;5.778;2023-05-24T12:48:13;11.07;;;3.10;;
53519;SDS011;39397;53.204;5.778;2023-05-24T12:50:39;10.43;;;2.55;;
53519;SDS011;39397;53.204;5.778;2023-05-24T12:53:05;9.80;;;2.95;;
53519;SDS011;39397;53.204;5.778;2023-05-24T12:55:31;10.25;;;3.15;;
53519;SDS011;39397;53.204;5.778;2023-05-24T12:57:56;8.20;;;2.60;;
53519;SDS011;39397;53.204;5.778;2023-05-24T13:00:25;8.02;;;2.67;;
53519;SDS011;39397;53.204;5.778;2023-05-24T13:02:52;7.47;;;2.25;;
53519;SDS011;39397;53.204;5.778;2023-05-24T13:05:22;14.35;;;3.35;;
53519;SDS011;39397;53.204;5.778;2023-05-24T13:07:49;11.85;;;2.20;;
53519;SDS011;39397;53.204;5.778;2023-05-24T13:10:16;11.02;;;2.40;;
53519;SDS011;39397;53.204;5.778;2023-05-24T13:12:43;10.45;;;2.20;;
53519;SDS011;39397;53.204;5.778;2023-05-24T13:15:10;12.68;;;2.97;;
53519;SDS011;39397;53.204;5.778;2023-05-24T13:17:36;11.27;;;2.70;;
53519;SDS011;39397;53.204;5.778;2023-05-24T13:20:03;13.30;;;2.88;;
53519;SDS011;39397;53.204;5.778;2023-05-24T13:22:34;10.63;;;3.47;;
53519;SDS011;39397;53.204;5.778;2023-05-24T13:25:01;9.43;;;2.28;;
53519;SDS011;39397;53.204;5.778;2023-05-24T13:27:28;9.65;;;3.35;;
53519;SDS011;39397;53.204;5.778;2023-05-24T13:29:53;9.32;;;3.10;;
53519;SDS011;39397;53.204;5.778;2023-05-24T13:32:20;8.00;;;2.08;;
53519;SDS011;39397;53.204;5.778;2023-05-24T13:34:46;9.45;;;2.95;;
53519;SDS011;39397;53.204;5.778;2023-05-24T13:37:12;13.02;;;2.90;;
53519;SDS011;39397;53.204;5.778;2023-05-24T13:39:38;12.15;;;3.22;;
53519;SDS011;39397;53.204;5.778;2023-05-24T13:42:04;15.70;;;4.30;;
53519;SDS011;39397;53.204;5.778;2023-05-24T13:44:30;9.75;;;2.63;;
53519;SDS011;39397;53.204;5.778;2023-05-24T13:46:56;10.38;;;2.80;;
53519;SDS011;39397;53.204;5.778;2023-05-24T13:49:22;10.68;;;3.10;;
53519;SDS011;39397;53.204;5.778;2023-05-24T13:51:48;9.75;;;2.45;;
53519;SDS011;39397;53.204;5.778;2023-05-24T13:54:14;10.25;;;2.53;;
53519;SDS011;39397;53.204;5.778;2023-05-24T13:56:40;10.38;;;2.90;;
53519;SDS011;39397;53.204;5.778;2023-05-24T13:59:08;11.25;;;3.10;;
53519;SDS011;39397;53.204;5.778;2023-05-24T14:01:34;10.82;;;2.88;;
53519;SDS011;39397;53.204;5.778;2023-05-24T14:04:02;11.25;;;2.53;;
53519;SDS011;39397;53.204;5.778;2023-05-24T14:06:29;11.45;;;2.60;;
53519;SDS011;39397;53.204;5.778;2023-05-24T14:08:56;9.48;;;2.80;;
53519;SDS011;39397;53.204;5.778;2023-05-24T14:11:22;14.50;;;3.25;;
53519;SDS011;39397;53.204;5.778;2023-05-24T14:13:48;12.13;;;3.65;;
53519;SDS011;39397;53.204;5.778;2023-05-24T14:16:14;11.13;;;2.42;;
53519;SDS011;39397;53.204;5.778;2023-05-24T14:18:41;9.15;;;2.60;;
53519;SDS011;39397;53.204;5.778;2023-05-24T14:21:07;10.07;;;2.80;;
53519;SDS011;39397;53.204;5.778;2023-05-24T14:23:32;11.98;;;3.42;;
53519;SDS011;39397;53.204;5.778;2023-05-24T14:25:58;11.05;;;3.25;;
53519;SDS011;39397;53.204;5.778;2023-05-24T14:28:24;11.13;;;2.83;;
53519;SDS011;39397;53.204;5.778;2023-05-24T14:30:50;14.77;;;3.33;;
53519;SDS011;39397;53.204;5.778;2023-05-24T14:33:16;13.10;;;3.08;;
53519;SDS011;39397;53.204;5.778;2023-05-24T14:35:42;12.55;;;3.13;;
53519;SDS011;39397;53.204;5.778;2023-05-24T14:38:09;11.68;;;2.72;;
53519;SDS011;39397;53.204;5.778;2023-05-24T14:40:35;10.45;;;2.78;;
53519;SDS011;39397;53.204;5.778;2023-05-24T14:43:03;9.20;;;2.25;;
53519;SDS011;39397;53.204;5.778;2023-05-24T14:45:30;8.98;;;2.75;;
53519;SDS011;39397;53.204;5.778;2023-05-24T14:47:56;12.63;;;2.92;;
53519;SDS011;39397;53.204;5.778;2023-05-24T14:50:22;12.05;;;2.78;;
53519;SDS011;39397;53.204;5.778;2023-05-24T14:52:50;9.48;;;3.20;;
53519;SDS011;39397;53.204;5.778;2023-05-24T14:55:16;9.57;;;3.05;;
53519;SDS011;39397;53.204;5.778;2023-05-24T14:57:42;9.65;;;2.70;;
53519;SDS011;39397;53.204;5.778;2023-05-24T15:00:08;12.60;;;3.28;;
53519;SDS011;39397;53.204;5.778;2023-05-24T15:02:35;12.63;;;3.45;;
53519;SDS011;39397;53.204;5.778;2023-05-24T15:05:01;13.38;;;2.70;;